createdAt,value
2018-09-29T00:00:41.144Z,9.60
2018-09-29T00:03:09.639Z,9.50
2018-09-29T00:05:38.136Z,9.50
2018-09-29T00:08:06.538Z,9.40
2018-09-29T00:10:35.949Z,9.40
2018-09-29T00:13:04.315Z,9.40
2018-09-29T00:15:32.707Z,9.40
2018-09-29T00:18:01.076Z,9.30
2018-09-29T00:20:29.385Z,9.30
2018-09-29T00:22:57.654Z,9.30
2018-09-29T00:25:25.944Z,9.20
2018-09-29T00:27:54.246Z,9.10
2018-09-29T00:30:22.533Z,9.10
2018-09-29T00:32:57.142Z,9.00
2018-09-29T00:35:25.466Z,9.00
2018-09-29T00:37:54.714Z,8.90
2018-09-29T00:40:22.990Z,8.80
2018-09-29T00:42:51.278Z,8.80
2018-09-29T00:45:19.521Z,8.70
2018-09-29T00:47:47.769Z,8.70
2018-09-29T00:50:15.998Z,8.70
2018-09-29T00:52:44.281Z,8.60
2018-09-29T00:55:12.567Z,8.70
2018-09-29T00:57:44.261Z,8.60
2018-09-29T01:00:12.546Z,8.60
2018-09-29T01:02:40.936Z,8.60
2018-09-29T01:05:09.355Z,8.60
2018-09-29T01:07:37.605Z,8.60
2018-09-29T01:10:05.914Z,8.60
2018-09-29T01:12:34.198Z,8.50
2018-09-29T01:15:02.494Z,8.50
2018-09-29T01:17:30.939Z,8.50
2018-09-29T01:19:59.360Z,8.50
2018-09-29T01:22:27.689Z,8.40
2018-09-29T01:24:55.984Z,8.40
2018-09-29T01:27:24.307Z,8.30
2018-09-29T01:29:52.613Z,8.40
2018-09-29T01:32:20.834Z,8.40
2018-09-29T01:34:49.114Z,8.30
2018-09-29T01:37:17.534Z,8.30
2018-09-29T01:39:45.974Z,8.30
2018-09-29T01:42:14.328Z,8.30
2018-09-29T01:44:42.623Z,8.30
2018-09-29T01:47:10.960Z,8.30
2018-09-29T01:49:39.270Z,8.30
2018-09-29T01:52:07.635Z,8.30
2018-09-29T01:54:35.961Z,8.30
2018-09-29T01:57:04.402Z,8.20
2018-09-29T01:59:32.780Z,8.20
2018-09-29T02:02:01.069Z,8.10
2018-09-29T02:04:29.461Z,8.10
2018-09-29T02:06:57.778Z,8.10
2018-09-29T02:09:26.153Z,8.10
2018-09-29T02:11:54.441Z,8.00
2018-09-29T02:14:22.755Z,8.00
2018-09-29T02:16:51.037Z,8.00
2018-09-29T02:19:19.318Z,8.00
2018-09-29T02:21:47.607Z,7.90
2018-09-29T02:24:15.974Z,7.90
2018-09-29T02:26:44.368Z,7.90
2018-09-29T02:29:12.999Z,8.00
2018-09-29T02:31:41.302Z,8.00
2018-09-29T02:34:09.744Z,8.00
2018-09-29T02:36:37.992Z,8.00
2018-09-29T02:39:09.170Z,8.00
2018-09-29T02:41:37.596Z,8.00
2018-09-29T02:44:05.942Z,8.00
2018-09-29T02:46:34.376Z,8.00
2018-09-29T02:49:02.789Z,8.00
2018-09-29T02:51:31.273Z,8.00
2018-09-29T02:53:59.729Z,8.00
2018-09-29T02:56:28.425Z,8.00
2018-09-29T02:58:56.973Z,8.00
2018-09-29T03:01:25.288Z,8.00
2018-09-29T03:03:53.685Z,8.00
2018-09-29T03:06:22.008Z,8.00
2018-09-29T03:08:52.493Z,8.00
2018-09-29T03:11:20.773Z,8.00
2018-09-29T03:13:49.077Z,7.90
2018-09-29T03:16:17.358Z,7.90
2018-09-29T03:18:45.603Z,7.90
2018-09-29T03:21:13.884Z,7.90
2018-09-29T03:23:42.219Z,7.90
2018-09-29T03:26:10.474Z,7.90
2018-09-29T03:28:38.743Z,7.90
2018-09-29T03:31:07.122Z,7.80
2018-09-29T03:33:35.392Z,7.80
2018-09-29T03:36:03.774Z,7.70
2018-09-29T03:38:32.153Z,7.70
2018-09-29T03:41:00.522Z,7.70
2018-09-29T03:43:28.854Z,7.70
2018-09-29T03:45:57.376Z,7.70
2018-09-29T03:48:25.709Z,7.60
2018-09-29T03:50:53.992Z,7.60
2018-09-29T03:53:22.307Z,7.50
2018-09-29T03:55:50.590Z,7.50
2018-09-29T03:58:18.863Z,7.40
2018-09-29T04:00:47.154Z,7.40
2018-09-29T04:03:15.480Z,7.30
2018-09-29T04:05:43.813Z,7.30
2018-09-29T04:08:12.132Z,7.20
2018-09-29T04:10:40.540Z,7.20
2018-09-29T04:13:08.785Z,7.10
2018-09-29T04:15:37.616Z,7.10
2018-09-29T04:18:06.422Z,7.00
2018-09-29T04:20:34.962Z,7.00
2018-09-29T04:23:03.400Z,7.10
2018-09-29T04:25:31.711Z,7.10
2018-09-29T04:28:00.228Z,7.10
2018-09-29T04:30:28.505Z,7.10
2018-09-29T04:32:56.940Z,7.10
2018-09-29T04:35:25.311Z,7.10
2018-09-29T04:37:53.636Z,7.10
2018-09-29T04:40:22.054Z,7.10
2018-09-29T04:42:50.294Z,7.10
2018-09-29T04:45:18.838Z,7.00
2018-09-29T04:47:47.197Z,7.00
2018-09-29T04:50:15.486Z,7.00
2018-09-29T04:52:43.798Z,6.90
2018-09-29T04:55:12.092Z,6.90
2018-09-29T04:57:40.381Z,6.90
2018-09-29T05:00:08.752Z,6.90
2018-09-29T05:02:37.098Z,6.80
2018-09-29T05:05:05.617Z,6.80
2018-09-29T05:07:33.896Z,6.70
2018-09-29T05:10:02.167Z,6.70
2018-09-29T05:12:30.603Z,6.70
2018-09-29T05:14:58.917Z,6.60
2018-09-29T05:17:28.312Z,6.50
2018-09-29T05:19:56.642Z,6.50
2018-09-29T05:22:24.948Z,6.40
2018-09-29T05:24:53.237Z,6.40
2018-09-29T05:27:21.565Z,6.30
2018-09-29T05:29:52.005Z,6.20
2018-09-29T05:32:21.362Z,6.20
2018-09-29T05:34:55.490Z,6.10
2018-09-29T05:37:27.792Z,6.10
2018-09-29T05:39:56.097Z,6.10
2018-09-29T05:42:24.405Z,6.10
2018-09-29T05:44:52.722Z,6.10
2018-09-29T05:47:21.066Z,6.10
2018-09-29T05:49:49.311Z,6.10
2018-09-29T05:52:17.800Z,6.10
2018-09-29T05:54:48.243Z,6.10
2018-09-29T05:57:16.782Z,6.10
2018-09-29T05:59:45.204Z,6.10
2018-09-29T06:02:13.671Z,6.10
2018-09-29T06:04:42.062Z,6.10
2018-09-29T06:07:10.458Z,6.10
2018-09-29T06:09:38.648Z,6.20
2018-09-29T06:12:07.057Z,6.20
2018-09-29T06:14:35.398Z,6.20
2018-09-29T06:17:03.730Z,6.30
2018-09-29T06:19:32.173Z,6.40
2018-09-29T06:22:00.577Z,6.40
2018-09-29T06:24:29.024Z,6.50
2018-09-29T06:26:57.360Z,6.60
2018-09-29T06:29:25.660Z,6.70
2018-09-29T06:31:54.281Z,6.70
2018-09-29T06:34:22.884Z,6.90
2018-09-29T06:36:51.324Z,7.10
2018-09-29T06:39:20.100Z,7.30
2018-09-29T06:41:48.477Z,7.40
2018-09-29T06:44:17.010Z,7.50
2018-09-29T06:46:45.621Z,7.50
2018-09-29T06:49:13.892Z,7.60
2018-09-29T06:51:42.302Z,7.60
2018-09-29T06:54:10.750Z,7.70
2018-09-29T06:56:39.150Z,7.90
2018-09-29T06:59:07.981Z,8.20
2018-09-29T07:01:37.773Z,8.30
2018-09-29T07:04:06.503Z,8.50
2018-09-29T07:06:35.778Z,8.60
2018-09-29T07:09:05.792Z,8.70
2018-09-29T07:11:34.143Z,8.80
2018-09-29T07:14:02.863Z,8.80
2018-09-29T07:16:31.162Z,8.80
2018-09-29T07:18:59.597Z,8.80
2018-09-29T07:21:27.984Z,8.80
2018-09-29T07:23:56.589Z,8.90
2018-09-29T07:26:25.032Z,8.90
2018-09-29T07:28:53.400Z,8.90
2018-09-29T07:31:21.970Z,9.00
2018-09-29T07:33:50.229Z,9.00
2018-09-29T07:36:18.772Z,9.00
2018-09-29T07:38:47.068Z,9.00
2018-09-29T07:41:15.537Z,8.90
2018-09-29T07:43:43.843Z,9.00
2018-09-29T07:46:12.295Z,9.20
2018-09-29T07:48:40.486Z,9.30
2018-09-29T07:51:08.856Z,9.40
2018-09-29T07:53:37.253Z,9.50
2018-09-29T07:56:06.032Z,9.60
2018-09-29T07:58:34.717Z,9.70
2018-09-29T08:01:03.125Z,9.70
2018-09-29T08:03:31.529Z,9.80
2018-09-29T08:05:59.841Z,10.00
2018-09-29T08:08:28.193Z,10.10
2018-09-29T08:10:56.586Z,10.20
2018-09-29T08:13:24.932Z,10.30
2018-09-29T08:15:53.392Z,10.50
2018-09-29T08:18:21.709Z,10.50
2018-09-29T08:20:50.384Z,10.50
2018-09-29T08:23:22.417Z,10.70
2018-09-29T08:25:50.649Z,10.80
2018-09-29T08:28:19.033Z,10.70
2018-09-29T08:30:47.398Z,10.80
2018-09-29T08:33:15.701Z,11.00
2018-09-29T08:35:44.164Z,11.10
2018-09-29T08:38:12.673Z,11.10
2018-09-29T08:40:41.146Z,10.90
2018-09-29T08:43:09.529Z,11.00
2018-09-29T08:45:37.970Z,11.10
2018-09-29T08:48:06.452Z,11.40
2018-09-29T08:50:35.168Z,11.60
2018-09-29T08:53:03.924Z,11.70
2018-09-29T08:55:32.794Z,11.80
2018-09-29T08:58:01.196Z,11.70
2018-09-29T09:00:29.885Z,11.70
2018-09-29T09:02:58.274Z,11.70
2018-09-29T09:05:26.693Z,11.60
2018-09-29T09:07:55.290Z,11.80
2018-09-29T09:10:23.966Z,11.80
2018-09-29T09:12:52.602Z,12.00
2018-09-29T09:15:20.991Z,12.10
2018-09-29T09:17:49.377Z,12.30
2018-09-29T09:20:17.879Z,12.40
2018-09-29T09:22:46.478Z,12.50
2018-09-29T09:25:15.082Z,12.60
2018-09-29T09:27:43.709Z,12.60
2018-09-29T09:30:12.186Z,12.30
2018-09-29T09:32:40.635Z,12.40
2018-09-29T09:35:09.116Z,12.40
2018-09-29T09:37:37.517Z,12.60
2018-09-29T09:40:06.017Z,13.00
2018-09-29T09:42:34.587Z,13.10
2018-09-29T09:45:03.116Z,13.20
2018-09-29T09:47:32.476Z,13.40
2018-09-29T09:50:00.787Z,13.50
2018-09-29T09:52:29.264Z,13.50
2018-09-29T09:54:59.931Z,13.70
2018-09-29T09:57:30.585Z,13.90
2018-09-29T09:59:59.048Z,13.70
2018-09-29T10:02:32.891Z,13.80
2018-09-29T10:05:02.540Z,13.70
2018-09-29T10:07:31.168Z,13.60
2018-09-29T10:09:59.706Z,13.90
2018-09-29T10:12:28.429Z,13.60
2018-09-29T10:14:56.772Z,13.60
2018-09-29T10:17:25.198Z,13.50
2018-09-29T10:19:53.562Z,13.70
2018-09-29T10:22:22.155Z,14.10
2018-09-29T10:24:50.635Z,14.30
2018-09-29T10:27:18.984Z,14.30
2018-09-29T10:29:47.184Z,14.40
2018-09-29T10:32:21.604Z,14.20
2018-09-29T10:34:50.138Z,14.40
2018-09-29T10:37:18.464Z,14.60
2018-09-29T10:39:46.897Z,14.50
2018-09-29T10:42:19.130Z,14.60
2018-09-29T10:44:48.153Z,14.80
2018-09-29T10:47:26.527Z,14.80
2018-09-29T10:49:55.099Z,14.80
2018-09-29T10:52:23.774Z,14.80
2018-09-29T10:54:52.259Z,14.80
2018-09-29T10:57:20.558Z,14.80
2018-09-29T10:59:49.029Z,15.00
2018-09-29T11:02:17.504Z,15.10
2018-09-29T11:04:45.710Z,15.20
2018-09-29T11:07:17.874Z,15.00
2018-09-29T11:09:46.244Z,15.10
2018-09-29T11:12:14.543Z,15.10
2018-09-29T11:14:43.468Z,15.00
2018-09-29T11:17:12.162Z,15.20
2018-09-29T11:19:40.915Z,15.20
2018-09-29T11:22:09.145Z,15.00
2018-09-29T11:24:37.557Z,14.80
2018-09-29T11:27:12.641Z,14.90
2018-09-29T11:29:40.930Z,15.00
2018-09-29T11:32:09.289Z,15.00
2018-09-29T11:34:37.616Z,14.80
2018-09-29T11:37:06.087Z,14.70
2018-09-29T11:39:35.764Z,14.70
2018-09-29T11:42:04.078Z,14.70
2018-09-29T11:44:32.261Z,14.70
2018-09-29T11:47:00.453Z,14.70
2018-09-29T11:49:28.852Z,14.80
2018-09-29T11:51:57.055Z,14.80
2018-09-29T11:54:25.472Z,14.80
2018-09-29T11:56:54.106Z,14.80
2018-09-29T11:59:22.435Z,14.90
2018-09-29T12:04:44.108Z,15.00
2018-09-29T12:07:12.712Z,15.00
2018-09-29T12:09:41.063Z,14.90
2018-09-29T12:12:09.365Z,14.80
2018-09-29T12:14:43.375Z,14.70
2018-09-29T12:17:11.928Z,14.80
2018-09-29T12:19:40.423Z,14.80
2018-09-29T12:22:08.779Z,14.90
2018-09-29T12:24:37.166Z,14.80
2018-09-29T12:27:06.116Z,15.00
2018-09-29T12:29:34.477Z,15.20
2018-09-29T12:32:03.630Z,15.20
2018-09-29T12:34:32.085Z,15.20
2018-09-29T12:37:00.577Z,15.40
2018-09-29T12:39:28.814Z,15.30
2018-09-29T12:41:57.107Z,15.20
2018-09-29T12:44:25.612Z,15.20
2018-09-29T12:46:54.209Z,15.30
2018-09-29T12:49:22.669Z,15.30
2018-09-29T12:51:51.024Z,15.40
2018-09-29T12:54:19.269Z,15.40
2018-09-29T12:56:47.511Z,15.50
2018-09-29T12:59:16.062Z,15.40
2018-09-29T13:01:46.324Z,15.50
2018-09-29T13:04:14.528Z,15.40
2018-09-29T13:06:42.841Z,15.40
2018-09-29T13:09:11.261Z,15.40
2018-09-29T13:11:39.701Z,15.30
2018-09-29T13:14:07.992Z,15.30
2018-09-29T13:16:36.760Z,15.50
2018-09-29T13:19:05.502Z,15.40
2018-09-29T13:21:33.885Z,15.50
2018-09-29T13:24:02.221Z,15.50
2018-09-29T13:26:30.731Z,15.40
2018-09-29T13:28:59.046Z,15.50
2018-09-29T13:31:27.298Z,15.50
2018-09-29T13:33:55.507Z,15.60
2018-09-29T13:36:23.817Z,15.60
2018-09-29T13:38:52.098Z,15.50
2018-09-29T13:41:20.540Z,15.40
2018-09-29T13:43:48.992Z,15.40
2018-09-29T13:46:31.541Z,15.50
2018-09-29T13:48:59.822Z,15.50
2018-09-29T13:51:28.089Z,15.70
2018-09-29T13:53:56.315Z,15.70
2018-09-29T13:56:24.591Z,15.80
2018-09-29T13:58:52.802Z,15.90
2018-09-29T14:01:21.144Z,15.90
2018-09-29T14:03:49.508Z,16.00
2018-09-29T14:06:17.838Z,16.00
2018-09-29T14:08:46.358Z,15.80
2018-09-29T14:11:14.555Z,15.80
2018-09-29T14:13:42.813Z,15.70
2018-09-29T14:16:11.056Z,15.70
2018-09-29T14:18:39.263Z,15.70
2018-09-29T14:21:07.454Z,15.70
2018-09-29T14:23:35.697Z,15.70
2018-09-29T14:26:03.894Z,15.70
2018-09-29T14:28:37.676Z,15.60
2018-09-29T14:31:06.026Z,15.60
2018-09-29T14:33:34.343Z,15.50
2018-09-29T14:36:02.705Z,15.50
2018-09-29T14:38:30.980Z,15.60
2018-09-29T14:40:59.348Z,15.60
2018-09-29T14:43:27.755Z,15.70
2018-09-29T14:45:56.038Z,15.70
2018-09-29T14:48:24.266Z,15.70
2018-09-29T14:50:52.475Z,15.70
2018-09-29T14:53:20.774Z,15.80
2018-09-29T14:55:49.006Z,15.80
2018-09-29T14:58:17.342Z,15.70
2018-09-29T15:00:45.705Z,15.70
2018-09-29T15:03:36.165Z,15.70
2018-09-29T15:06:04.494Z,15.70
2018-09-29T15:08:32.840Z,15.70
2018-09-29T15:11:03.283Z,15.70
2018-09-29T15:13:31.967Z,15.70
2018-09-29T15:16:01.084Z,15.70
2018-09-29T15:18:43.148Z,15.70
2018-09-29T15:21:11.526Z,15.70
2018-09-29T15:23:39.840Z,15.60
2018-09-29T15:26:08.377Z,15.60
2018-09-29T15:28:36.569Z,15.60
2018-09-29T15:31:05.021Z,15.60
2018-09-29T15:33:33.316Z,15.60
2018-09-29T15:36:01.804Z,15.60
2018-09-29T15:38:30.249Z,15.50
2018-09-29T15:40:58.626Z,15.60
2018-09-29T15:43:27.109Z,15.60
2018-09-29T15:45:55.398Z,15.50
2018-09-29T15:48:23.768Z,15.50
2018-09-29T15:50:52.308Z,15.40
2018-09-29T15:53:20.645Z,15.50
2018-09-29T15:55:49.131Z,15.50
2018-09-29T15:58:17.485Z,15.60
2018-09-29T16:00:45.801Z,15.50
2018-09-29T16:03:14.344Z,14.90
2018-09-29T16:05:42.820Z,15.40
2018-09-29T16:08:11.189Z,15.30
2018-09-29T16:10:39.605Z,15.30
2018-09-29T16:13:08.001Z,15.20
2018-09-29T16:15:37.397Z,15.10
2018-09-29T16:18:05.835Z,15.10
2018-09-29T16:20:34.339Z,15.10
2018-09-29T16:23:02.944Z,15.00
2018-09-29T16:25:31.285Z,14.90
2018-09-29T16:27:59.664Z,14.80
2018-09-29T16:30:27.962Z,14.70
2018-09-29T16:32:59.497Z,14.70
2018-09-29T16:35:27.778Z,14.60
2018-09-29T16:37:56.044Z,14.50
2018-09-29T16:40:24.248Z,14.40
2018-09-29T16:42:52.502Z,14.30
2018-09-29T16:45:20.823Z,14.30
2018-09-29T16:47:49.170Z,14.20
2018-09-29T16:50:17.467Z,14.10
2018-09-29T16:52:45.812Z,14.00
2018-09-29T16:55:14.072Z,13.90
2018-09-29T16:57:42.385Z,13.90
2018-09-29T17:00:10.637Z,13.80
2018-09-29T17:02:38.843Z,13.70
2018-09-29T17:05:07.118Z,13.60
2018-09-29T17:07:35.384Z,13.50
2018-09-29T17:10:03.664Z,13.40
2018-09-29T17:12:31.922Z,13.30
2018-09-29T17:15:00.201Z,13.20
2018-09-29T17:17:28.400Z,13.00
2018-09-29T17:19:56.676Z,12.90
2018-09-29T17:22:24.942Z,12.80
2018-09-29T17:24:53.330Z,12.70
2018-09-29T17:27:22.256Z,12.60
2018-09-29T17:29:50.700Z,12.50
2018-09-29T17:32:19.258Z,12.30
2018-09-29T17:34:47.638Z,12.20
2018-09-29T17:37:15.939Z,12.00
2018-09-29T17:39:44.187Z,11.90
2018-09-29T17:42:12.426Z,11.80
2018-09-29T17:44:40.719Z,11.80
2018-09-29T17:47:09.009Z,11.70
2018-09-29T17:49:37.324Z,11.70
2018-09-29T17:52:05.699Z,11.70
2018-09-29T17:54:33.978Z,11.70
2018-09-29T17:57:02.447Z,11.60
2018-09-29T17:59:30.764Z,11.60
2018-09-29T18:01:59.136Z,11.50
2018-09-29T18:04:27.521Z,11.40
2018-09-29T18:06:55.728Z,11.40
2018-09-29T18:09:24.059Z,11.40
2018-09-29T18:11:52.312Z,11.30
2018-09-29T18:14:20.560Z,11.30
2018-09-29T18:16:48.900Z,11.20
2018-09-29T18:19:17.176Z,11.10
2018-09-29T18:21:45.511Z,11.00
2018-09-29T18:24:13.798Z,10.90
2018-09-29T18:26:43.102Z,10.70
2018-09-29T18:29:11.372Z,10.50
2018-09-29T18:31:39.687Z,10.30
2018-09-29T18:34:08.126Z,10.20
2018-09-29T18:36:36.473Z,10.10
2018-09-29T18:39:07.351Z,9.90
2018-09-29T18:41:35.842Z,9.70
2018-09-29T18:44:07.181Z,9.60
2018-09-29T18:46:35.449Z,9.50
2018-09-29T18:49:03.878Z,9.40
2018-09-29T18:51:32.401Z,9.50
2018-09-29T18:54:00.684Z,9.50
2018-09-29T18:56:28.949Z,9.50
2018-09-29T18:58:57.332Z,9.40
2018-09-29T19:01:25.663Z,9.40
2018-09-29T19:03:54.061Z,9.30
2018-09-29T19:06:29.549Z,9.20
2018-09-29T19:08:58.229Z,9.10
2018-09-29T19:11:26.692Z,9.00
2018-09-29T19:13:54.981Z,8.90
2018-09-29T19:16:23.391Z,8.80
2018-09-29T19:18:51.794Z,8.70
2018-09-29T19:21:20.102Z,8.60
2018-09-29T19:23:48.604Z,8.50
2018-09-29T19:26:17.925Z,8.40
2018-09-29T19:28:49.981Z,8.30
2018-09-29T19:31:23.503Z,8.10
2018-09-29T19:33:51.930Z,8.00
2018-09-29T19:36:20.351Z,7.80
2018-09-29T19:38:48.704Z,7.70
2018-09-29T19:41:17.095Z,7.60
2018-09-29T19:43:45.414Z,7.60
2018-09-29T19:46:13.755Z,7.50
2018-09-29T19:48:42.306Z,7.50
2018-09-29T19:51:10.747Z,7.40
2018-09-29T19:53:39.078Z,7.30
2018-09-29T19:56:07.575Z,7.20
2018-09-29T19:58:35.858Z,7.10
2018-09-29T20:01:04.145Z,7.10
2018-09-29T20:03:34.535Z,7.00
2018-09-29T20:06:03.049Z,6.90
2018-09-29T20:08:31.468Z,6.90
2018-09-29T20:10:59.847Z,6.80
2018-09-29T20:13:28.212Z,6.70
2018-09-29T20:15:56.677Z,6.70
2018-09-29T20:18:25.004Z,6.60
2018-09-29T20:20:53.455Z,6.50
2018-09-29T20:23:21.849Z,6.50
2018-09-29T20:25:50.437Z,6.50
2018-09-29T20:28:18.717Z,6.50
2018-09-29T20:30:47.005Z,6.40
2018-09-29T20:33:15.509Z,6.40
2018-09-29T20:35:43.992Z,6.30
2018-09-29T20:38:12.273Z,6.30
2018-09-29T20:40:40.608Z,6.20
2018-09-29T20:43:08.916Z,6.10
2018-09-29T20:45:37.184Z,6.00
2018-09-29T20:48:05.460Z,6.00
2018-09-29T20:50:33.717Z,6.00
2018-09-29T20:53:02.069Z,6.00
2018-09-29T20:55:30.293Z,6.00
2018-09-29T20:57:58.558Z,5.90
2018-09-29T21:00:26.915Z,5.90
2018-09-29T21:02:55.138Z,5.80
2018-09-29T21:05:23.407Z,5.80
2018-09-29T21:07:51.752Z,5.80
2018-09-29T21:10:20.072Z,5.70
2018-09-29T21:12:48.524Z,5.60
2018-09-29T21:15:16.803Z,5.60
2018-09-29T21:17:45.093Z,5.60
2018-09-29T21:20:13.477Z,5.60
2018-09-29T21:22:42.498Z,5.60
2018-09-29T21:25:10.847Z,5.60
2018-09-29T21:27:39.130Z,5.50
2018-09-29T21:30:07.472Z,5.50
2018-09-29T21:32:35.810Z,5.40
2018-09-29T21:35:04.115Z,5.40
2018-09-29T21:37:32.444Z,5.30
2018-09-29T21:40:01.079Z,5.30
2018-09-29T21:42:29.546Z,5.30
2018-09-29T21:44:57.905Z,5.20
2018-09-29T21:47:26.148Z,5.20
2018-09-29T21:49:54.458Z,5.20
2018-09-29T21:52:22.932Z,5.20
2018-09-29T21:54:51.280Z,5.20
2018-09-29T21:57:19.527Z,5.20
2018-09-29T21:59:47.832Z,5.10
2018-09-29T22:02:16.156Z,5.10
2018-09-29T22:04:44.497Z,5.00
2018-09-29T22:07:13.080Z,4.90
2018-09-29T22:09:41.427Z,4.90
2018-09-29T22:12:09.772Z,4.80
2018-09-29T22:14:38.198Z,4.80
2018-09-29T22:17:06.564Z,4.70
2018-09-29T22:19:35.020Z,4.70
2018-09-29T22:22:03.420Z,4.70
2018-09-29T22:24:31.695Z,4.60
2018-09-29T22:27:00.052Z,4.60
2018-09-29T22:29:28.512Z,4.60
2018-09-29T22:32:05.052Z,4.50
2018-09-29T22:34:33.469Z,4.50
2018-09-29T22:37:07.273Z,4.40
2018-09-29T22:39:35.864Z,4.40
2018-09-29T22:42:04.304Z,4.40
2018-09-29T22:44:34.860Z,4.40
2018-09-29T22:47:03.133Z,4.40
2018-09-29T22:49:31.460Z,4.30
2018-09-29T22:51:59.776Z,4.30
2018-09-29T22:54:28.069Z,4.30
2018-09-29T22:56:56.432Z,4.20
2018-09-29T22:59:24.708Z,4.20
2018-09-29T23:01:54.234Z,4.20
2018-09-29T23:04:22.594Z,4.20
2018-09-29T23:06:50.829Z,4.20
2018-09-29T23:09:19.133Z,4.20
2018-09-29T23:11:47.431Z,4.20
2018-09-29T23:14:15.865Z,4.20
2018-09-29T23:16:44.301Z,4.30
2018-09-29T23:19:12.717Z,4.30
2018-09-29T23:21:41.098Z,4.20
2018-09-29T23:24:09.741Z,4.10
2018-09-29T23:26:38.074Z,4.10
2018-09-29T23:29:06.475Z,4.00
2018-09-29T23:31:34.823Z,4.00
2018-09-29T23:34:03.136Z,4.00
2018-09-29T23:36:31.617Z,3.90
2018-09-29T23:38:59.955Z,3.90
2018-09-29T23:41:28.179Z,3.90
2018-09-29T23:43:56.465Z,3.80
2018-09-29T23:46:25.117Z,3.80
2018-09-29T23:48:53.447Z,3.70
2018-09-29T23:51:21.779Z,3.70
2018-09-29T23:53:50.154Z,3.60
2018-09-29T23:56:18.524Z,3.50
2018-09-29T23:58:46.830Z,3.60
